sensor_id;sensor_type;location;lat;lon;timestamp;P1;durP1;ratioP1;P2;durP2;ratioP2
14748;SDS011;7466;53.574;9.976;2023-06-01T00:00:54;22.00;;;12.20;;
14748;SDS011;7466;53.574;9.976;2023-06-01T00:03:21;18.73;;;12.37;;
14748;SDS011;7466;53.574;9.976;2023-06-01T00:05:49;18.20;;;12.47;;
14748;SDS011;7466;53.574;9.976;2023-06-01T00:08:16;22.80;;;13.13;;
14748;SDS011;7466;53.574;9.976;2023-06-01T00:10:43;17.63;;;12.17;;
14748;SDS011;7466;53.574;9.976;2023-06-01T00:13:10;16.83;;;11.40;;
14748;SDS011;7466;53.574;9.976;2023-06-01T00:15:37;14.73;;;11.20;;
14748;SDS011;7466;53.574;9.976;2023-06-01T00:18:05;17.23;;;10.37;;
14748;SDS011;7466;53.574;9.976;2023-06-01T00:20:33;18.43;;;11.30;;
14748;SDS011;7466;53.574;9.976;2023-06-01T00:23:00;17.13;;;10.53;;
14748;SDS011;7466;53.574;9.976;2023-06-01T00:25:28;15.83;;;8.90;;
14748;SDS011;7466;53.574;9.976;2023-06-01T00:27:55;16.87;;;9.40;;
14748;SDS011;7466;53.574;9.976;2023-06-01T00:30:22;14.23;;;8.73;;
14748;SDS011;7466;53.574;9.976;2023-06-01T00:32:50;16.70;;;9.40;;
14748;SDS011;7466;53.574;9.976;2023-06-01T00:35:18;20.27;;;9.80;;
14748;SDS011;7466;53.574;9.976;2023-06-01T00:37:45;16.97;;;9.13;;
14748;SDS011;7466;53.574;9.976;2023-06-01T00:40:12;14.13;;;8.93;;
14748;SDS011;7466;53.574;9.976;2023-06-01T00:42:38;10.83;;;8.43;;
14748;SDS011;7466;53.574;9.976;2023-06-01T00:45:06;13.77;;;8.23;;
14748;SDS011;7466;53.574;9.976;2023-06-01T00:47:33;13.47;;;8.47;;
14748;SDS011;7466;53.574;9.976;2023-06-01T00:50:07;15.43;;;8.37;;
14748;SDS011;7466;53.574;9.976;2023-06-01T00:52:37;13.83;;;8.13;;
14748;SDS011;7466;53.574;9.976;2023-06-01T00:55:05;14.07;;;7.67;;
14748;SDS011;7466;53.574;9.976;2023-06-01T00:57:34;14.90;;;7.80;;
14748;SDS011;7466;53.574;9.976;2023-06-01T01:00:01;20.07;;;7.27;;
14748;SDS011;7466;53.574;9.976;2023-06-01T01:02:47;14.03;;;8.03;;
14748;SDS011;7466;53.574;9.976;2023-06-01T01:05:16;14.10;;;7.50;;
14748;SDS011;7466;53.574;9.976;2023-06-01T01:07:49;11.87;;;7.13;;
14748;SDS011;7466;53.574;9.976;2023-06-01T01:10:22;14.60;;;7.37;;
14748;SDS011;7466;53.574;9.976;2023-06-01T01:12:58;8.23;;;6.23;;
14748;SDS011;7466;53.574;9.976;2023-06-01T01:15:32;15.43;;;6.70;;
14748;SDS011;7466;53.574;9.976;2023-06-01T01:18:11;10.33;;;6.63;;
14748;SDS011;7466;53.574;9.976;2023-06-01T01:20:43;10.03;;;5.40;;
14748;SDS011;7466;53.574;9.976;2023-06-01T01:23:17;12.50;;;6.47;;
14748;SDS011;7466;53.574;9.976;2023-06-01T01:26:10;19.90;;;7.00;;
14748;SDS011;7466;53.574;9.976;2023-06-01T01:28:45;14.70;;;6.80;;
14748;SDS011;7466;53.574;9.976;2023-06-01T01:31:16;13.50;;;6.50;;
14748;SDS011;7466;53.574;9.976;2023-06-01T01:33:45;14.10;;;6.17;;
14748;SDS011;7466;53.574;9.976;2023-06-01T01:36:16;12.40;;;5.87;;
14748;SDS011;7466;53.574;9.976;2023-06-01T01:38:43;9.27;;;6.20;;
14748;SDS011;7466;53.574;9.976;2023-06-01T01:41:10;13.03;;;6.37;;
14748;SDS011;7466;53.574;9.976;2023-06-01T01:43:37;12.67;;;6.80;;
14748;SDS011;7466;53.574;9.976;2023-06-01T01:46:13;14.63;;;6.73;;
14748;SDS011;7466;53.574;9.976;2023-06-01T01:48:49;12.00;;;6.10;;
14748;SDS011;7466;53.574;9.976;2023-06-01T01:51:24;14.83;;;6.00;;
14748;SDS011;7466;53.574;9.976;2023-06-01T01:53:53;16.77;;;6.63;;
14748;SDS011;7466;53.574;9.976;2023-06-01T01:56:22;14.70;;;6.47;;
14748;SDS011;7466;53.574;9.976;2023-06-01T01:58:51;13.20;;;7.20;;
14748;SDS011;7466;53.574;9.976;2023-06-01T02:01:20;13.97;;;6.40;;
14748;SDS011;7466;53.574;9.976;2023-06-01T02:03:57;17.27;;;6.47;;
14748;SDS011;7466;53.574;9.976;2023-06-01T02:06:25;13.97;;;6.40;;
14748;SDS011;7466;53.574;9.976;2023-06-01T02:08:53;12.43;;;6.30;;
14748;SDS011;7466;53.574;9.976;2023-06-01T02:11:20;17.47;;;6.40;;
14748;SDS011;7466;53.574;9.976;2023-06-01T02:13:47;10.10;;;5.50;;
14748;SDS011;7466;53.574;9.976;2023-06-01T02:16:14;18.27;;;6.97;;
14748;SDS011;7466;53.574;9.976;2023-06-01T02:18:43;16.47;;;6.10;;
14748;SDS011;7466;53.574;9.976;2023-06-01T02:21:11;14.20;;;6.23;;
14748;SDS011;7466;53.574;9.976;2023-06-01T02:23:38;19.57;;;6.10;;
14748;SDS011;7466;53.574;9.976;2023-06-01T02:26:06;15.20;;;6.20;;
14748;SDS011;7466;53.574;9.976;2023-06-01T02:28:33;15.13;;;6.77;;
14748;SDS011;7466;53.574;9.976;2023-06-01T02:31:00;14.17;;;6.43;;
14748;SDS011;7466;53.574;9.976;2023-06-01T02:33:26;14.73;;;6.23;;
14748;SDS011;7466;53.574;9.976;2023-06-01T02:35:55;12.13;;;6.70;;
14748;SDS011;7466;53.574;9.976;2023-06-01T02:38:21;12.20;;;5.37;;
14748;SDS011;7466;53.574;9.976;2023-06-01T02:40:48;16.77;;;6.20;;
14748;SDS011;7466;53.574;9.976;2023-06-01T02:43:15;16.27;;;6.40;;
14748;SDS011;7466;53.574;9.976;2023-06-01T02:45:42;11.97;;;5.87;;
14748;SDS011;7466;53.574;9.976;2023-06-01T02:48:09;14.87;;;6.40;;
14748;SDS011;7466;53.574;9.976;2023-06-01T02:50:35;17.60;;;6.33;;
14748;SDS011;7466;53.574;9.976;2023-06-01T02:53:04;14.50;;;6.90;;
14748;SDS011;7466;53.574;9.976;2023-06-01T02:55:31;13.30;;;6.23;;
14748;SDS011;7466;53.574;9.976;2023-06-01T02:57:58;14.13;;;6.33;;
14748;SDS011;7466;53.574;9.976;2023-06-01T03:00:25;15.00;;;6.50;;
14748;SDS011;7466;53.574;9.976;2023-06-01T03:02:52;12.37;;;6.47;;
14748;SDS011;7466;53.574;9.976;2023-06-01T03:05:19;13.73;;;6.37;;
14748;SDS011;7466;53.574;9.976;2023-06-01T03:07:47;12.57;;;6.30;;
14748;SDS011;7466;53.574;9.976;2023-06-01T03:10:15;13.93;;;6.57;;
14748;SDS011;7466;53.574;9.976;2023-06-01T03:12:42;13.73;;;5.57;;
14748;SDS011;7466;53.574;9.976;2023-06-01T03:15:09;18.13;;;6.40;;
14748;SDS011;7466;53.574;9.976;2023-06-01T03:17:36;16.40;;;6.57;;
14748;SDS011;7466;53.574;9.976;2023-06-01T03:20:04;12.03;;;5.50;;
14748;SDS011;7466;53.574;9.976;2023-06-01T03:22:39;10.87;;;5.30;;
14748;SDS011;7466;53.574;9.976;2023-06-01T03:25:07;10.73;;;5.20;;
14748;SDS011;7466;53.574;9.976;2023-06-01T03:27:37;13.63;;;5.60;;
14748;SDS011;7466;53.574;9.976;2023-06-01T03:30:05;16.80;;;5.63;;
14748;SDS011;7466;53.574;9.976;2023-06-01T03:32:35;14.43;;;6.00;;
14748;SDS011;7466;53.574;9.976;2023-06-01T03:35:02;13.43;;;5.90;;
14748;SDS011;7466;53.574;9.976;2023-06-01T03:37:29;10.90;;;6.10;;
14748;SDS011;7466;53.574;9.976;2023-06-01T03:39:56;13.80;;;6.37;;
14748;SDS011;7466;53.574;9.976;2023-06-01T03:42:23;14.37;;;6.13;;
14748;SDS011;7466;53.574;9.976;2023-06-01T03:44:51;16.80;;;6.00;;
14748;SDS011;7466;53.574;9.976;2023-06-01T03:47:18;10.20;;;5.97;;
14748;SDS011;7466;53.574;9.976;2023-06-01T03:49:45;13.17;;;6.00;;
14748;SDS011;7466;53.574;9.976;2023-06-01T03:52:11;12.23;;;6.20;;
14748;SDS011;7466;53.574;9.976;2023-06-01T03:54:41;14.20;;;5.90;;
14748;SDS011;7466;53.574;9.976;2023-06-01T03:57:08;14.87;;;6.60;;
14748;SDS011;7466;53.574;9.976;2023-06-01T03:59:35;14.63;;;5.20;;
14748;SDS011;7466;53.574;9.976;2023-06-01T04:02:03;13.03;;;5.70;;
14748;SDS011;7466;53.574;9.976;2023-06-01T04:04:33;13.77;;;5.50;;
14748;SDS011;7466;53.574;9.976;2023-06-01T04:07:00;15.43;;;5.77;;
14748;SDS011;7466;53.574;9.976;2023-06-01T04:09:27;13.53;;;6.20;;
14748;SDS011;7466;53.574;9.976;2023-06-01T04:11:54;15.07;;;5.90;;
14748;SDS011;7466;53.574;9.976;2023-06-01T04:14:21;14.87;;;6.23;;
14748;SDS011;7466;53.574;9.976;2023-06-01T04:16:48;14.43;;;6.00;;
14748;SDS011;7466;53.574;9.976;2023-06-01T04:19:16;12.77;;;6.33;;
14748;SDS011;7466;53.574;9.976;2023-06-01T04:21:43;13.30;;;6.17;;
14748;SDS011;7466;53.574;9.976;2023-06-01T04:24:10;14.97;;;6.20;;
14748;SDS011;7466;53.574;9.976;2023-06-01T04:26:37;16.07;;;5.87;;
14748;SDS011;7466;53.574;9.976;2023-06-01T04:29:04;11.97;;;5.87;;
14748;SDS011;7466;53.574;9.976;2023-06-01T04:31:30;15.07;;;6.17;;
14748;SDS011;7466;53.574;9.976;2023-06-01T04:33:57;14.97;;;6.00;;
14748;SDS011;7466;53.574;9.976;2023-06-01T04:36:28;11.80;;;5.70;;
14748;SDS011;7466;53.574;9.976;2023-06-01T04:38:55;15.33;;;6.10;;
14748;SDS011;7466;53.574;9.976;2023-06-01T04:41:23;14.63;;;6.57;;
14748;SDS011;7466;53.574;9.976;2023-06-01T04:43:51;12.27;;;5.77;;
14748;SDS011;7466;53.574;9.976;2023-06-01T04:46:35;19.53;;;6.53;;
14748;SDS011;7466;53.574;9.976;2023-06-01T04:49:04;12.37;;;5.90;;
14748;SDS011;7466;53.574;9.976;2023-06-01T04:51:33;17.40;;;6.67;;
14748;SDS011;7466;53.574;9.976;2023-06-01T04:54:01;16.50;;;6.00;;
14748;SDS011;7466;53.574;9.976;2023-06-01T04:56:28;12.53;;;6.10;;
14748;SDS011;7466;53.574;9.976;2023-06-01T04:58:55;15.53;;;5.90;;
14748;SDS011;7466;53.574;9.976;2023-06-01T05:01:23;15.30;;;5.93;;
14748;SDS011;7466;53.574;9.976;2023-06-01T05:03:51;15.23;;;6.83;;
14748;SDS011;7466;53.574;9.976;2023-06-01T05:06:20;14.27;;;5.87;;
14748;SDS011;7466;53.574;9.976;2023-06-01T05:08:50;11.80;;;5.80;;
14748;SDS011;7466;53.574;9.976;2023-06-01T05:11:17;12.37;;;6.30;;
14748;SDS011;7466;53.574;9.976;2023-06-01T05:13:44;11.07;;;5.80;;
14748;SDS011;7466;53.574;9.976;2023-06-01T05:16:10;13.43;;;6.13;;
14748;SDS011;7466;53.574;9.976;2023-06-01T05:18:37;17.93;;;6.33;;
14748;SDS011;7466;53.574;9.976;2023-06-01T05:21:04;13.37;;;6.40;;
14748;SDS011;7466;53.574;9.976;2023-06-01T05:23:33;14.53;;;6.90;;
14748;SDS011;7466;53.574;9.976;2023-06-01T05:26:01;19.80;;;6.93;;
14748;SDS011;7466;53.574;9.976;2023-06-01T05:28:28;14.87;;;6.97;;
14748;SDS011;7466;53.574;9.976;2023-06-01T05:30:56;13.30;;;6.70;;
14748;SDS011;7466;53.574;9.976;2023-06-01T05:33:23;14.93;;;6.37;;
14748;SDS011;7466;53.574;9.976;2023-06-01T05:35:50;15.17;;;6.93;;
14748;SDS011;7466;53.574;9.976;2023-06-01T05:38:17;12.17;;;6.10;;
14748;SDS011;7466;53.574;9.976;2023-06-01T05:40:45;16.80;;;6.63;;
14748;SDS011;7466;53.574;9.976;2023-06-01T05:43:13;13.50;;;6.47;;
14748;SDS011;7466;53.574;9.976;2023-06-01T05:45:40;14.67;;;5.77;;
14748;SDS011;7466;53.574;9.976;2023-06-01T05:48:07;12.93;;;6.67;;
14748;SDS011;7466;53.574;9.976;2023-06-01T05:50:34;14.03;;;6.30;;
14748;SDS011;7466;53.574;9.976;2023-06-01T05:53:02;12.57;;;5.60;;
14748;SDS011;7466;53.574;9.976;2023-06-01T05:55:29;12.33;;;5.13;;
14748;SDS011;7466;53.574;9.976;2023-06-01T05:57:56;12.53;;;4.77;;
14748;SDS011;7466;53.574;9.976;2023-06-01T06:00:27;11.97;;;5.20;;
14748;SDS011;7466;53.574;9.976;2023-06-01T06:02:55;11.73;;;5.17;;
14748;SDS011;7466;53.574;9.976;2023-06-01T06:05:21;13.40;;;4.57;;
14748;SDS011;7466;53.574;9.976;2023-06-01T06:07:48;12.03;;;4.80;;
14748;SDS011;7466;53.574;9.976;2023-06-01T06:10:15;14.50;;;5.00;;
14748;SDS011;7466;53.574;9.976;2023-06-01T06:12:42;11.17;;;4.47;;
14748;SDS011;7466;53.574;9.976;2023-06-01T06:15:09;16.83;;;5.40;;
14748;SDS011;7466;53.574;9.976;2023-06-01T06:17:38;14.37;;;5.33;;
14748;SDS011;7466;53.574;9.976;2023-06-01T06:20:05;10.23;;;5.13;;
14748;SDS011;7466;53.574;9.976;2023-06-01T06:22:34;12.03;;;4.60;;
14748;SDS011;7466;53.574;9.976;2023-06-01T06:25:00;11.50;;;5.20;;
14748;SDS011;7466;53.574;9.976;2023-06-01T06:27:27;13.27;;;5.40;;
14748;SDS011;7466;53.574;9.976;2023-06-01T06:29:54;12.93;;;4.90;;
14748;SDS011;7466;53.574;9.976;2023-06-01T06:32:21;9.00;;;4.60;;
14748;SDS011;7466;53.574;9.976;2023-06-01T06:34:49;13.47;;;5.17;;
14748;SDS011;7466;53.574;9.976;2023-06-01T06:37:16;12.83;;;5.33;;
14748;SDS011;7466;53.574;9.976;2023-06-01T06:39:44;12.83;;;5.37;;
14748;SDS011;7466;53.574;9.976;2023-06-01T06:42:11;15.70;;;5.33;;
14748;SDS011;7466;53.574;9.976;2023-06-01T06:44:37;11.53;;;5.13;;
14748;SDS011;7466;53.574;9.976;2023-06-01T06:47:05;11.53;;;5.17;;
14748;SDS011;7466;53.574;9.976;2023-06-01T06:49:32;11.63;;;5.30;;
14748;SDS011;7466;53.574;9.976;2023-06-01T06:52:00;13.17;;;4.90;;
14748;SDS011;7466;53.574;9.976;2023-06-01T06:54:27;17.17;;;5.13;;
14748;SDS011;7466;53.574;9.976;2023-06-01T06:56:54;14.03;;;4.43;;
14748;SDS011;7466;53.574;9.976;2023-06-01T06:59:21;14.53;;;4.97;;
14748;SDS011;7466;53.574;9.976;2023-06-01T07:01:47;11.60;;;4.90;;
14748;SDS011;7466;53.574;9.976;2023-06-01T07:04:14;11.60;;;5.00;;
14748;SDS011;7466;53.574;9.976;2023-06-01T07:06:41;16.80;;;4.67;;
14748;SDS011;7466;53.574;9.976;2023-06-01T07:09:10;8.93;;;4.13;;
14748;SDS011;7466;53.574;9.976;2023-06-01T07:11:37;11.93;;;4.00;;
14748;SDS011;7466;53.574;9.976;2023-06-01T07:14:06;11.00;;;4.40;;
14748;SDS011;7466;53.574;9.976;2023-06-01T07:16:33;11.80;;;4.23;;
14748;SDS011;7466;53.574;9.976;2023-06-01T07:19:00;11.40;;;4.20;;
14748;SDS011;7466;53.574;9.976;2023-06-01T07:21:27;10.20;;;4.03;;
14748;SDS011;7466;53.574;9.976;2023-06-01T07:23:54;11.93;;;4.53;;
14748;SDS011;7466;53.574;9.976;2023-06-01T07:26:23;11.30;;;4.27;;
14748;SDS011;7466;53.574;9.976;2023-06-01T07:28:51;12.47;;;4.13;;
14748;SDS011;7466;53.574;9.976;2023-06-01T07:31:18;14.90;;;4.30;;
14748;SDS011;7466;53.574;9.976;2023-06-01T07:33:46;13.80;;;4.67;;
14748;SDS011;7466;53.574;9.976;2023-06-01T07:36:13;13.23;;;4.30;;
14748;SDS011;7466;53.574;9.976;2023-06-01T07:38:40;18.73;;;4.67;;
14748;SDS011;7466;53.574;9.976;2023-06-01T07:41:08;14.70;;;5.03;;
14748;SDS011;7466;53.574;9.976;2023-06-01T07:43:37;9.93;;;3.90;;
14748;SDS011;7466;53.574;9.976;2023-06-01T07:46:04;18.83;;;4.60;;
14748;SDS011;7466;53.574;9.976;2023-06-01T07:48:31;13.60;;;4.50;;
14748;SDS011;7466;53.574;9.976;2023-06-01T07:51:01;14.33;;;5.13;;
14748;SDS011;7466;53.574;9.976;2023-06-01T07:53:28;10.30;;;4.63;;
14748;SDS011;7466;53.574;9.976;2023-06-01T07:55:55;12.17;;;4.70;;
14748;SDS011;7466;53.574;9.976;2023-06-01T07:58:22;12.33;;;4.57;;
14748;SDS011;7466;53.574;9.976;2023-06-01T08:00:50;9.17;;;4.20;;
14748;SDS011;7466;53.574;9.976;2023-06-01T08:03:17;8.40;;;4.03;;
14748;SDS011;7466;53.574;9.976;2023-06-01T08:05:45;12.97;;;3.93;;
14748;SDS011;7466;53.574;9.976;2023-06-01T08:08:12;14.03;;;4.43;;
14748;SDS011;7466;53.574;9.976;2023-06-01T08:10:40;12.43;;;3.97;;
14748;SDS011;7466;53.574;9.976;2023-06-01T08:13:06;8.57;;;4.17;;
14748;SDS011;7466;53.574;9.976;2023-06-01T08:15:33;10.60;;;3.93;;
14748;SDS011;7466;53.574;9.976;2023-06-01T08:18:12;10.53;;;3.83;;
14748;SDS011;7466;53.574;9.976;2023-06-01T08:20:39;15.00;;;4.00;;
14748;SDS011;7466;53.574;9.976;2023-06-01T08:23:07;6.37;;;3.67;;
14748;SDS011;7466;53.574;9.976;2023-06-01T08:25:34;10.67;;;4.13;;
14748;SDS011;7466;53.574;9.976;2023-06-01T08:28:07;12.00;;;4.00;;
14748;SDS011;7466;53.574;9.976;2023-06-01T08:30:34;9.47;;;3.90;;
14748;SDS011;7466;53.574;9.976;2023-06-01T08:33:01;12.27;;;3.80;;
14748;SDS011;7466;53.574;9.976;2023-06-01T08:35:45;9.97;;;3.80;;
14748;SDS011;7466;53.574;9.976;2023-06-01T08:38:12;10.17;;;4.07;;
14748;SDS011;7466;53.574;9.976;2023-06-01T08:40:39;8.47;;;3.63;;
14748;SDS011;7466;53.574;9.976;2023-06-01T08:43:09;9.17;;;3.97;;
14748;SDS011;7466;53.574;9.976;2023-06-01T08:45:40;8.77;;;3.90;;
14748;SDS011;7466;53.574;9.976;2023-06-01T08:48:09;8.93;;;3.50;;
14748;SDS011;7466;53.574;9.976;2023-06-01T08:50:42;11.40;;;3.67;;
14748;SDS011;7466;53.574;9.976;2023-06-01T08:53:11;4.93;;;3.07;;
14748;SDS011;7466;53.574;9.976;2023-06-01T08:55:39;11.30;;;3.90;;
14748;SDS011;7466;53.574;9.976;2023-06-01T08:58:06;9.03;;;3.97;;
14748;SDS011;7466;53.574;9.976;2023-06-01T09:00:33;8.73;;;3.53;;
14748;SDS011;7466;53.574;9.976;2023-06-01T09:03:01;5.70;;;3.03;;
14748;SDS011;7466;53.574;9.976;2023-06-01T09:05:29;13.03;;;4.17;;
14748;SDS011;7466;53.574;9.976;2023-06-01T09:07:56;8.03;;;3.23;;
14748;SDS011;7466;53.574;9.976;2023-06-01T09:10:24;9.00;;;3.40;;
14748;SDS011;7466;53.574;9.976;2023-06-01T09:12:51;10.17;;;3.67;;
14748;SDS011;7466;53.574;9.976;2023-06-01T09:15:19;8.30;;;3.10;;
14748;SDS011;7466;53.574;9.976;2023-06-01T09:17:47;10.87;;;3.33;;
14748;SDS011;7466;53.574;9.976;2023-06-01T09:20:21;8.67;;;3.23;;
14748;SDS011;7466;53.574;9.976;2023-06-01T09:22:50;10.47;;;3.73;;
14748;SDS011;7466;53.574;9.976;2023-06-01T09:25:17;9.93;;;3.37;;
14748;SDS011;7466;53.574;9.976;2023-06-01T09:27:53;13.00;;;3.27;;
14748;SDS011;7466;53.574;9.976;2023-06-01T09:30:22;7.97;;;3.60;;
14748;SDS011;7466;53.574;9.976;2023-06-01T09:32:50;9.90;;;3.37;;
14748;SDS011;7466;53.574;9.976;2023-06-01T09:38:03;7.13;;;2.87;;
14748;SDS011;7466;53.574;9.976;2023-06-01T09:40:32;9.23;;;3.30;;
14748;SDS011;7466;53.574;9.976;2023-06-01T09:43:00;10.60;;;3.53;;
14748;SDS011;7466;53.574;9.976;2023-06-01T09:45:28;10.57;;;3.50;;
14748;SDS011;7466;53.574;9.976;2023-06-01T09:47:57;9.20;;;3.50;;
14748;SDS011;7466;53.574;9.976;2023-06-01T09:50:41;15.60;;;3.87;;
14748;SDS011;7466;53.574;9.976;2023-06-01T09:53:08;14.67;;;3.57;;
14748;SDS011;7466;53.574;9.976;2023-06-01T09:55:37;8.83;;;3.37;;
14748;SDS011;7466;53.574;9.976;2023-06-01T09:58:30;8.90;;;3.07;;
14748;SDS011;7466;53.574;9.976;2023-06-01T10:00:59;7.73;;;3.20;;
14748;SDS011;7466;53.574;9.976;2023-06-01T10:03:28;10.37;;;3.90;;
14748;SDS011;7466;53.574;9.976;2023-06-01T10:05:56;9.00;;;3.50;;
14748;SDS011;7466;53.574;9.976;2023-06-01T10:08:24;11.13;;;3.57;;
14748;SDS011;7466;53.574;9.976;2023-06-01T10:10:53;7.57;;;3.63;;
14748;SDS011;7466;53.574;9.976;2023-06-01T10:13:20;12.07;;;3.60;;
14748;SDS011;7466;53.574;9.976;2023-06-01T10:15:52;10.23;;;3.60;;
14748;SDS011;7466;53.574;9.976;2023-06-01T10:18:19;14.70;;;3.87;;
14748;SDS011;7466;53.574;9.976;2023-06-01T10:20:47;13.60;;;3.97;;
14748;SDS011;7466;53.574;9.976;2023-06-01T10:23:15;9.17;;;3.53;;
14748;SDS011;7466;53.574;9.976;2023-06-01T10:25:42;11.23;;;3.77;;
14748;SDS011;7466;53.574;9.976;2023-06-01T10:28:14;8.23;;;3.60;;
14748;SDS011;7466;53.574;9.976;2023-06-01T10:30:43;10.77;;;4.23;;
14748;SDS011;7466;53.574;9.976;2023-06-01T10:33:11;12.87;;;3.70;;
14748;SDS011;7466;53.574;9.976;2023-06-01T10:35:50;9.87;;;3.43;;
14748;SDS011;7466;53.574;9.976;2023-06-01T10:38:22;12.83;;;3.77;;
14748;SDS011;7466;53.574;9.976;2023-06-01T10:40:51;10.23;;;3.90;;
14748;SDS011;7466;53.574;9.976;2023-06-01T10:49:06;7.40;;;2.97;;
14748;SDS011;7466;53.574;9.976;2023-06-01T10:51:33;8.10;;;2.77;;
14748;SDS011;7466;53.574;9.976;2023-06-01T10:57:19;9.00;;;3.57;;
14748;SDS011;7466;53.574;9.976;2023-06-01T11:02:42;7.20;;;2.73;;
14748;SDS011;7466;53.574;9.976;2023-06-01T11:05:35;8.87;;;3.17;;
14748;SDS011;7466;53.574;9.976;2023-06-01T11:08:06;8.67;;;2.97;;
14748;SDS011;7466;53.574;9.976;2023-06-01T11:10:53;8.90;;;3.13;;
14748;SDS011;7466;53.574;9.976;2023-06-01T11:13:24;10.97;;;3.03;;
14748;SDS011;7466;53.574;9.976;2023-06-01T11:18:58;9.00;;;2.77;;
14748;SDS011;7466;53.574;9.976;2023-06-01T11:21:26;10.13;;;3.20;;
14748;SDS011;7466;53.574;9.976;2023-06-01T11:23:55;8.00;;;2.83;;
14748;SDS011;7466;53.574;9.976;2023-06-01T11:26:23;12.13;;;3.37;;
14748;SDS011;7466;53.574;9.976;2023-06-01T11:29:02;12.60;;;3.30;;
14748;SDS011;7466;53.574;9.976;2023-06-01T11:31:35;10.27;;;3.03;;
14748;SDS011;7466;53.574;9.976;2023-06-01T11:34:04;13.00;;;3.10;;
14748;SDS011;7466;53.574;9.976;2023-06-01T11:36:35;7.27;;;2.90;;
14748;SDS011;7466;53.574;9.976;2023-06-01T11:39:15;14.07;;;3.27;;
14748;SDS011;7466;53.574;9.976;2023-06-01T11:41:45;11.10;;;2.93;;
14748;SDS011;7466;53.574;9.976;2023-06-01T11:44:12;9.67;;;2.93;;
14748;SDS011;7466;53.574;9.976;2023-06-01T11:46:50;11.47;;;3.00;;
14748;SDS011;7466;53.574;9.976;2023-06-01T11:49:20;7.67;;;2.87;;
14748;SDS011;7466;53.574;9.976;2023-06-01T11:51:48;6.30;;;2.63;;
14748;SDS011;7466;53.574;9.976;2023-06-01T11:54:21;6.30;;;2.60;;
14748;SDS011;7466;53.574;9.976;2023-06-01T11:56:48;10.67;;;2.60;;
14748;SDS011;7466;53.574;9.976;2023-06-01T11:59:17;8.93;;;2.73;;
14748;SDS011;7466;53.574;9.976;2023-06-01T12:01:45;9.57;;;2.47;;
14748;SDS011;7466;53.574;9.976;2023-06-01T12:04:14;7.03;;;2.43;;
14748;SDS011;7466;53.574;9.976;2023-06-01T12:06:41;11.97;;;2.63;;
14748;SDS011;7466;53.574;9.976;2023-06-01T12:09:08;9.83;;;2.53;;
14748;SDS011;7466;53.574;9.976;2023-06-01T12:11:36;6.17;;;2.47;;
14748;SDS011;7466;53.574;9.976;2023-06-01T12:14:03;13.17;;;2.30;;
14748;SDS011;7466;53.574;9.976;2023-06-01T12:19:19;11.17;;;2.30;;
14748;SDS011;7466;53.574;9.976;2023-06-01T12:21:46;14.47;;;3.13;;
14748;SDS011;7466;53.574;9.976;2023-06-01T12:24:15;13.37;;;3.23;;
14748;SDS011;7466;53.574;9.976;2023-06-01T12:26:42;12.23;;;2.50;;
14748;SDS011;7466;53.574;9.976;2023-06-01T12:29:09;10.30;;;3.00;;
14748;SDS011;7466;53.574;9.976;2023-06-01T12:31:35;12.23;;;2.17;;
14748;SDS011;7466;53.574;9.976;2023-06-01T12:34:02;11.17;;;2.53;;
14748;SDS011;7466;53.574;9.976;2023-06-01T12:36:42;7.73;;;2.37;;
14748;SDS011;7466;53.574;9.976;2023-06-01T12:39:08;9.90;;;2.50;;
14748;SDS011;7466;53.574;9.976;2023-06-01T12:41:35;6.60;;;2.27;;
14748;SDS011;7466;53.574;9.976;2023-06-01T12:44:02;14.03;;;2.70;;
14748;SDS011;7466;53.574;9.976;2023-06-01T12:46:30;9.03;;;2.57;;
14748;SDS011;7466;53.574;9.976;2023-06-01T12:49:10;10.50;;;2.73;;
14748;SDS011;7466;53.574;9.976;2023-06-01T12:51:38;12.13;;;2.73;;
14748;SDS011;7466;53.574;9.976;2023-06-01T12:54:06;10.23;;;2.70;;
14748;SDS011;7466;53.574;9.976;2023-06-01T12:56:33;9.63;;;2.40;;
14748;SDS011;7466;53.574;9.976;2023-06-01T12:59:01;11.63;;;2.90;;
14748;SDS011;7466;53.574;9.976;2023-06-01T13:01:31;10.47;;;2.43;;
14748;SDS011;7466;53.574;9.976;2023-06-01T13:03:58;5.93;;;2.20;;
14748;SDS011;7466;53.574;9.976;2023-06-01T13:06:25;10.73;;;2.70;;
14748;SDS011;7466;53.574;9.976;2023-06-01T13:08:52;6.57;;;2.30;;
14748;SDS011;7466;53.574;9.976;2023-06-01T13:11:21;8.63;;;2.50;;
14748;SDS011;7466;53.574;9.976;2023-06-01T13:13:49;13.80;;;2.70;;
14748;SDS011;7466;53.574;9.976;2023-06-01T13:16:16;10.73;;;2.60;;
14748;SDS011;7466;53.574;9.976;2023-06-01T13:18:43;7.60;;;2.47;;
14748;SDS011;7466;53.574;9.976;2023-06-01T13:21:10;7.73;;;2.30;;
14748;SDS011;7466;53.574;9.976;2023-06-01T13:23:37;8.33;;;2.80;;
14748;SDS011;7466;53.574;9.976;2023-06-01T13:26:04;11.03;;;2.60;;
14748;SDS011;7466;53.574;9.976;2023-06-01T13:28:34;11.50;;;2.77;;
14748;SDS011;7466;53.574;9.976;2023-06-01T13:31:01;11.23;;;2.43;;
14748;SDS011;7466;53.574;9.976;2023-06-01T13:33:28;12.57;;;2.80;;
14748;SDS011;7466;53.574;9.976;2023-06-01T13:35:59;9.63;;;2.50;;
14748;SDS011;7466;53.574;9.976;2023-06-01T13:38:26;11.07;;;2.77;;
14748;SDS011;7466;53.574;9.976;2023-06-01T13:40:53;10.47;;;2.57;;
14748;SDS011;7466;53.574;9.976;2023-06-01T13:43:20;8.83;;;2.50;;
14748;SDS011;7466;53.574;9.976;2023-06-01T13:45:48;15.90;;;3.35;;
14748;SDS011;7466;53.574;9.976;2023-06-01T13:48:15;9.93;;;2.50;;
14748;SDS011;7466;53.574;9.976;2023-06-01T13:50:42;14.57;;;3.25;;
14748;SDS011;7466;53.574;9.976;2023-06-01T13:53:09;12.02;;;2.90;;
14748;SDS011;7466;53.574;9.976;2023-06-01T13:55:36;10.90;;;3.05;;
14748;SDS011;7466;53.574;9.976;2023-06-01T13:58:04;12.83;;;3.00;;
14748;SDS011;7466;53.574;9.976;2023-06-01T14:00:31;9.63;;;2.80;;
14748;SDS011;7466;53.574;9.976;2023-06-01T14:03:00;9.67;;;2.70;;
14748;SDS011;7466;53.574;9.976;2023-06-01T14:05:27;11.33;;;2.40;;
14748;SDS011;7466;53.574;9.976;2023-06-01T14:07:54;8.52;;;2.78;;
14748;SDS011;7466;53.574;9.976;2023-06-01T14:10:22;11.32;;;2.40;;
14748;SDS011;7466;53.574;9.976;2023-06-01T14:12:49;9.93;;;2.65;;
14748;SDS011;7466;53.574;9.976;2023-06-01T14:15:17;11.13;;;3.08;;
14748;SDS011;7466;53.574;9.976;2023-06-01T14:17:46;7.28;;;2.88;;
14748;SDS011;7466;53.574;9.976;2023-06-01T14:20:19;9.88;;;2.60;;
14748;SDS011;7466;53.574;9.976;2023-06-01T14:22:46;12.50;;;2.75;;
14748;SDS011;7466;53.574;9.976;2023-06-01T14:25:13;9.65;;;2.63;;
14748;SDS011;7466;53.574;9.976;2023-06-01T14:27:40;11.93;;;2.70;;
14748;SDS011;7466;53.574;9.976;2023-06-01T14:30:07;12.23;;;3.03;;
14748;SDS011;7466;53.574;9.976;2023-06-01T14:32:34;12.23;;;2.70;;
14748;SDS011;7466;53.574;9.976;2023-06-01T14:35:01;10.30;;;2.70;;
14748;SDS011;7466;53.574;9.976;2023-06-01T14:37:29;12.40;;;3.00;;
14748;SDS011;7466;53.574;9.976;2023-06-01T14:39:57;7.75;;;2.70;;
14748;SDS011;7466;53.574;9.976;2023-06-01T14:42:24;11.73;;;3.00;;
14748;SDS011;7466;53.574;9.976;2023-06-01T14:44:51;12.70;;;3.25;;
14748;SDS011;7466;53.574;9.976;2023-06-01T14:47:18;17.05;;;3.30;;
14748;SDS011;7466;53.574;9.976;2023-06-01T14:49:45;10.80;;;3.05;;
14748;SDS011;7466;53.574;9.976;2023-06-01T14:52:12;8.68;;;3.60;;
14748;SDS011;7466;53.574;9.976;2023-06-01T14:54:40;12.32;;;2.75;;
14748;SDS011;7466;53.574;9.976;2023-06-01T14:57:07;14.50;;;3.05;;
14748;SDS011;7466;53.574;9.976;2023-06-01T14:59:34;13.27;;;2.92;;
14748;SDS011;7466;53.574;9.976;2023-06-01T15:02:01;11.13;;;3.13;;
14748;SDS011;7466;53.574;9.976;2023-06-01T15:04:28;17.23;;;3.58;;
14748;SDS011;7466;53.574;9.976;2023-06-01T15:06:55;18.77;;;3.67;;
14748;SDS011;7466;53.574;9.976;2023-06-01T15:09:22;15.23;;;3.42;;
14748;SDS011;7466;53.574;9.976;2023-06-01T15:11:51;10.05;;;3.33;;
14748;SDS011;7466;53.574;9.976;2023-06-01T15:14:18;14.43;;;3.67;;
14748;SDS011;7466;53.574;9.976;2023-06-01T15:16:45;18.25;;;3.50;;
14748;SDS011;7466;53.574;9.976;2023-06-01T15:19:12;15.77;;;3.67;;